Time;durP1;ratioP1;P1;durP2;ratioP2;P2;SDS_P1;SDS_P2;PMS_P1;PMS_P2;Temp;Humidity;BMP_temperature;BMP_pressure;BME280_temperature;BME280_humidity;BME280_pressure;Samples;Min_cycle;Max_cycle;Signal;HPM_P1;HPM_P2
2023/06/02 00:02:15;;;;;;;11.43;1.83;;;;;;;11.29;84.75;101715.59;6227737;28;20064;-71
2023/06/02 00:05:18;;;;;;;5.13;1.83;;;;;;;11.37;84.00;101722.25;6227681;28;20050;-71
2023/06/02 00:08:20;;;;;;;9.48;1.95;;;;;;;11.31;84.40;101732.16;6227386;28;20056;-73
2023/06/02 00:11:23;;;;;;;7.90;1.75;;;;;;;11.36;84.62;101728.44;6226892;28;20092;-71
2023/06/02 00:14:24;;;;;;;13.23;2.15;;;;;;;11.33;83.92;101725.06;6227271;28;20454;-74
2023/06/02 00:17:25;;;;;;;12.75;1.95;;;;;;;11.34;85.20;101713.63;6227376;28;20164;-74
2023/06/02 00:20:28;;;;;;;7.38;2.10;;;;;;;11.31;84.88;101713.72;6226530;28;20050;-74
2023/06/02 00:23:30;;;;;;;4.35;1.90;;;;;;;11.30;85.49;101718.16;6219006;28;20057;-71
2023/06/02 00:26:31;;;;;;;5.13;1.48;;;;;;;11.24;86.02;101714.91;6204346;28;20351;-71
2023/06/02 00:29:33;;;;;;;5.68;1.48;;;;;;;11.32;87.27;101699.69;6202107;28;20066;-71
2023/06/02 00:32:35;;;;;;;12.70;2.20;;;;;;;11.35;85.79;101700.38;6209153;28;20061;-71
2023/06/02 00:35:37;;;;;;;6.38;1.90;;;;;;;11.31;85.79;101704.09;6225654;28;20038;-71
2023/06/02 00:38:39;;;;;;;11.77;3.08;;;;;;;11.26;86.71;101706.03;6226184;28;20048;-71
2023/06/02 00:41:40;;;;;;;6.32;1.90;;;;;;;11.29;86.50;101708.53;6226348;28;20046;-71
2023/06/02 00:44:42;;;;;;;4.88;1.55;;;;;;;11.29;87.83;101707.69;6226470;28;20041;-71
2023/06/02 00:47:43;;;;;;;12.88;2.85;;;;;;;11.31;87.88;101706.72;6226601;28;20061;-71
2023/06/02 00:50:46;;;;;;;4.47;1.40;;;;;;;11.40;88.14;101705.50;6193648;28;20359;-71
2023/06/02 00:53:47;;;;;;;7.18;2.55;;;;;;;11.29;87.04;101705.06;6194292;28;20057;-71
2023/06/02 00:56:51;;;;;;;7.85;2.00;;;;;;;11.20;87.42;101701.03;6208805;28;20462;-72
2023/06/02 00:59:52;;;;;;;8.15;1.67;;;;;;;11.14;87.57;101706.53;6201228;28;20058;-71
2023/06/02 01:02:57;;;;;;;10.00;1.83;;;;;;;11.14;89.07;101709.19;6202046;28;20050;-71
2023/06/02 01:06:02;;;;;;;5.97;1.70;;;;;;;11.13;87.36;101703.06;6204495;28;20505;-74
2023/06/02 01:09:06;;;;;;;5.45;1.90;;;;;;;11.08;87.36;101707.66;6219985;28;20065;-73
2023/06/02 01:12:09;;;;;;;4.68;1.63;;;;;;;11.06;87.80;101714.72;6226144;28;20050;-74
2023/06/02 01:15:11;;;;;;;7.90;2.47;;;;;;;10.98;88.44;101718.59;6212200;28;20046;-74
2023/06/02 01:18:15;;;;;;;7.63;2.38;;;;;;;10.93;89.16;101708.25;6226140;28;20387;-73
2023/06/02 01:21:23;;;;;;;7.57;1.83;;;;;;;10.87;88.44;101704.09;6225251;28;20081;-73
2023/06/02 01:24:29;;;;;;;7.80;1.20;;;;;;;10.88;90.05;101710.19;6208555;28;20382;-74
2023/06/02 01:27:30;;;;;;;4.38;1.60;;;;;;;10.93;89.16;101713.50;6223960;28;20045;-73
2023/06/02 01:30:32;;;;;;;6.88;1.40;;;;;;;10.96;90.33;101716.03;6225378;28;20054;-71
2023/06/02 01:33:39;;;;;;;7.75;1.50;;;;;;;11.02;89.12;101707.88;6225690;28;20125;-71
2023/06/02 01:36:43;;;;;;;5.32;1.77;;;;;;;11.02;88.58;101705.25;6225903;28;20052;-71
2023/06/02 01:39:47;;;;;;;5.40;1.80;;;;;;;11.02;89.19;101710.50;6192670;28;20076;-71
2023/06/02 01:42:50;;;;;;;9.27;2.25;;;;;;;11.01;89.14;101703.53;6201384;28;20434;-71
2023/06/02 01:45:52;;;;;;;6.18;1.40;;;;;;;10.91;88.95;101710.94;6201152;28;20053;-71
2023/06/02 01:48:53;;;;;;;9.70;1.30;;;;;;;10.93;90.66;101705.63;6201497;28;20061;-71
2023/06/02 01:51:55;;;;;;;6.78;1.50;;;;;;;10.93;91.11;101709.09;6200545;28;20454;-70
2023/06/02 01:54:57;;;;;;;8.20;1.50;;;;;;;10.95;91.12;101711.69;6194614;28;20051;-71
2023/06/02 01:57:59;;;;;;;7.07;1.77;;;;;;;10.92;90.74;101709.16;6221433;28;20080;-71
2023/06/02 02:01:00;;;;;;;8.00;1.38;;;;;;;10.96;89.68;101707.28;6224845;28;20351;-71
2023/06/02 02:04:01;;;;;;;11.00;2.22;;;;;;;10.86;90.89;101710.28;6223215;28;20058;-76
2023/06/02 02:07:03;;;;;;;6.47;1.50;;;;;;;10.86;91.09;101710.28;6204574;28;20105;-76
2023/06/02 02:10:07;;;;;;;10.50;1.48;;;;;;;10.82;91.88;101702.56;6221559;28;20058;-76
2023/06/02 02:13:08;;;;;;;5.53;1.65;;;;;;;10.89;91.15;101711.91;6230004;28;20046;-76
2023/06/02 02:16:10;;;;;;;6.80;1.88;;;;;;;10.83;91.65;101706.91;6218777;28;20043;-76
2023/06/02 02:19:12;;;;;;;3.22;1.00;;;;;;;10.89;91.86;101709.28;6205012;28;20579;-77
2023/06/02 02:22:13;;;;;;;3.28;1.45;;;;;;;10.86;91.78;101709.41;6201871;28;20058;-76
2023/06/02 02:25:16;;;;;;;9.88;1.80;;;;;;;10.88;92.32;101713.69;6222931;28;20350;-76
2023/06/02 02:28:17;;;;;;;7.53;1.83;;;;;;;10.87;92.63;101708.50;6209305;28;20042;-76
2023/06/02 02:31:19;;;;;;;9.73;2.55;;;;;;;10.88;92.44;101707.56;6204732;28;20053;-76
2023/06/02 02:34:22;;;;;;;5.90;1.33;;;;;;;10.79;93.08;101711.41;6205516;28;20450;-76
2023/06/02 02:37:23;;;;;;;10.65;2.42;;;;;;;10.81;92.50;101717.47;6205375;28;20042;-79
2023/06/02 02:40:26;;;;;;;16.52;4.22;;;;;;;10.81;93.21;101717.47;6204418;28;20053;-79
2023/06/02 02:43:27;;;;;;;6.15;2.33;;;;;;;10.82;93.87;101700.78;6211071;28;20042;-78
2023/06/02 02:46:28;;;;;;;5.80;1.90;;;;;;;10.92;93.50;101714.44;6223270;28;20065;-78
2023/06/02 02:49:30;;;;;;;17.88;1.95;;;;;;;10.91;93.28;101708.31;6204553;28;20042;-79
2023/06/02 02:52:32;;;;;;;6.10;1.27;;;;;;;10.86;93.67;101710.28;6202458;28;20047;-79
2023/06/02 02:55:34;;;;;;;7.10;1.58;;;;;;;10.82;93.45;101706.03;6212974;28;20173;-78
2023/06/02 02:58:37;;;;;;;7.97;1.65;;;;;;;10.83;93.98;101704.28;6204861;28;20396;-79
2023/06/02 03:01:43;;;;;;;10.55;1.40;;;;;;;10.85;94.67;101712.94;6203641;28;20068;-76
2023/06/02 03:04:45;;;;;;;3.50;1.38;;;;;;;10.87;95.79;101704.09;6213943;28;20337;-76
2023/06/02 03:07:49;;;;;;;7.97;1.65;;;;;;;10.86;95.46;101709.41;6216018;28;20050;-76
2023/06/02 03:10:53;;;;;;;11.35;1.73;;;;;;;10.90;95.36;101714.50;6213986;28;20113;-76
2023/06/02 03:13:54;;;;;;;12.35;2.15;;;;;;;10.78;95.97;101717.59;6216567;28;20050;-75
2023/06/02 03:16:56;;;;;;;12.80;2.30;;;;;;;10.82;95.99;101719.19;6215982;28;20468;-76
2023/06/02 03:19:58;;;;;;;8.07;1.55;;;;;;;10.90;95.62;101713.63;6208967;28;20046;-76
2023/06/02 03:22:59;;;;;;;3.65;1.20;;;;;;;10.97;96.51;101712.47;6199189;28;20057;-76
2023/06/02 03:26:02;;;;;;;5.03;1.20;;;;;;;10.91;95.92;101718.84;6195266;28;20355;-76
2023/06/02 03:29:05;;;;;;;6.10;1.02;;;;;;;10.91;96.47;101721.47;6199070;28;20050;-76
2023/06/02 03:32:10;;;;;;;8.35;1.40;;;;;;;10.91;95.69;101723.25;6197291;28;20127;-76
2023/06/02 03:35:11;;;;;;;6.43;1.52;;;;;;;10.89;96.61;101728.53;6195095;28;20046;-76
2023/06/02 03:38:12;;;;;;;6.30;1.30;;;;;;;10.90;96.79;101724.13;6196017;28;20439;-76
2023/06/02 03:41:15;;;;;;;8.40;1.55;;;;;;;11.00;96.49;101738.66;6196342;28;20050;-76
2023/06/02 03:44:16;;;;;;;5.93;1.98;;;;;;;10.94;97.17;101731.00;6198574;28;20047;-79
2023/06/02 03:47:18;;;;;;;5.72;1.77;;;;;;;11.03;97.24;101735.03;6208488;28;20046;-79
2023/06/02 03:50:19;;;;;;;6.18;1.52;;;;;;;10.99;97.56;101734.31;6222618;28;20046;-76
2023/06/02 03:53:21;;;;;;;5.15;1.52;;;;;;;10.97;97.74;101732.66;6195417;28;20069;-76
2023/06/02 03:56:23;;;;;;;6.85;1.83;;;;;;;10.90;98.86;101737.28;6186080;28;20509;-76
2023/06/02 03:59:25;;;;;;;4.68;1.60;;;;;;;10.84;97.72;101741.00;6180517;28;20622;-75
2023/06/02 04:02:26;;;;;;;4.18;1.75;;;;;;;10.85;98.26;101737.47;6207186;28;20041;-76
2023/06/02 04:05:28;;;;;;;8.77;1.60;;;;;;;10.87;98.41;101746.16;6197118;28;20045;-76
2023/06/02 04:08:29;;;;;;;6.45;1.60;;;;;;;10.85;98.78;101739.22;6206433;28;20053;-76
2023/06/02 04:11:32;;;;;;;8.60;1.73;;;;;;;10.92;98.66;101748.63;6209127;28;20049;-76
2023/06/02 04:14:34;;;;;;;9.15;1.55;;;;;;;10.89;99.06;101752.22;6209425;28;20579;-76
2023/06/02 04:17:36;;;;;;;14.25;1.98;;;;;;;10.85;100.00;101749.75;6210310;28;20042;-75
2023/06/02 04:20:37;;;;;;;19.67;2.08;;;;;;;10.92;100.00;101749.47;6185147;28;20050;-77
2023/06/02 04:23:39;;;;;;;7.35;1.95;;;;;;;10.97;99.89;101754.56;6186448;28;20042;-76
2023/06/02 04:26:42;;;;;;;3.45;1.50;;;;;;;10.84;100.00;101762.06;6196809;28;20042;-76
2023/06/02 04:29:43;;;;;;;4.60;1.67;;;;;;;10.90;99.83;101764.47;6207292;28;20507;-76
2023/06/02 04:32:45;;;;;;;8.20;1.65;;;;;;;10.90;100.00;101764.47;6206871;28;20048;-77
2023/06/02 04:35:46;;;;;;;9.35;2.28;;;;;;;10.86;100.00;101768.13;6174874;28;20453;-76
2023/06/02 04:38:48;;;;;;;8.95;2.00;;;;;;;10.83;100.00;101764.75;6184236;28;20054;-76
2023/06/02 04:41:50;;;;;;;8.57;1.45;;;;;;;10.89;100.00;101761.88;6195828;28;20058;-76
2023/06/02 04:44:52;;;;;;;8.10;2.17;;;;;;;10.88;100.00;101770.69;6195138;28;20064;-76
2023/06/02 04:47:53;;;;;;;5.68;2.20;;;;;;;10.87;100.00;101761.94;6203271;28;20363;-75
2023/06/02 04:50:55;;;;;;;6.97;2.15;;;;;;;10.79;100.00;101765.78;6210620;28;20038;-76
2023/06/02 04:53:56;;;;;;;7.03;1.63;;;;;;;10.91;100.00;101762.69;6221210;28;20052;-76
2023/06/02 04:56:59;;;;;;;5.68;1.83;;;;;;;10.86;100.00;101762.88;6226290;28;20054;-76
2023/06/02 05:00:00;;;;;;;8.52;1.80;;;;;;;10.88;100.00;101768.06;6215816;28;20435;-76
2023/06/02 05:03:01;;;;;;;13.52;2.40;;;;;;;10.82;100.00;101765.66;6201937;28;20050;-76
2023/06/02 05:06:03;;;;;;;7.78;2.30;;;;;;;10.85;100.00;101762.91;6202055;28;20053;-75
2023/06/02 05:09:05;;;;;;;13.35;2.80;;;;;;;10.93;100.00;101761.69;6211381;28;20059;-75
2023/06/02 05:12:09;;;;;;;4.65;2.03;;;;;;;10.91;100.00;101766.16;6226618;28;20049;-76
2023/06/02 05:15:11;;;;;;;9.38;2.75;;;;;;;11.00;100.00;101770.22;6210400;28;20124;-76
2023/06/02 05:18:14;;;;;;;12.73;2.63;;;;;;;11.09;100.00;101763.75;6200339;28;20065;-76
2023/06/02 05:21:15;;;;;;;9.80;2.58;;;;;;;10.98;100.00;101766.78;6208768;28;20358;-76
2023/06/02 05:24:17;;;;;;;7.35;2.42;;;;;;;11.01;100.00;101769.31;6193384;28;20043;-78
2023/06/02 05:27:19;;;;;;;6.40;2.60;;;;;;;11.03;100.00;101766.59;6222214;28;20342;-76
2023/06/02 05:30:21;;;;;;;15.25;2.55;;;;;;;11.04;100.00;101766.56;6225163;28;20053;-76
2023/06/02 05:33:22;;;;;;;13.15;2.70;;;;;;;11.06;100.00;101769.13;6204733;28;20094;-76
2023/06/02 05:36:23;;;;;;;14.60;2.67;;;;;;;11.06;100.00;101783.13;6201465;28;20055;-76
2023/06/02 05:39:25;;;;;;;24.88;3.40;;;;;;;11.01;100.00;101786.84;6200360;28;20049;-76
2023/06/02 05:42:28;;;;;;;12.63;3.22;;;;;;;11.04;100.00;101784.97;6208060;28;20072;-76
2023/06/02 05:45:29;;;;;;;11.40;2.03;;;;;;;11.13;100.00;101781.97;6209732;28;20043;-76
2023/06/02 05:48:31;;;;;;;7.95;2.13;;;;;;;11.14;100.00;101790.72;6207323;28;20065;-76
2023/06/02 05:51:32;;;;;;;11.70;2.25;;;;;;;11.19;100.00;101791.41;6210698;28;20050;-76
2023/06/02 05:54:33;;;;;;;14.00;2.63;;;;;;;11.14;100.00;101796.00;6217673;28;20054;-76
2023/06/02 05:57:37;;;;;;;14.05;3.17;;;;;;;11.20;100.00;101794.88;6201211;28;20042;-76
2023/06/02 06:00:39;;;;;;;10.95;2.15;;;;;;;11.14;100.00;101790.72;6202147;28;20050;-76
2023/06/02 06:03:40;;;;;;;7.82;2.60;;;;;;;11.15;100.00;101795.06;6208359;28;20046;-76
2023/06/02 06:06:41;;;;;;;7.90;2.45;;;;;;;11.13;100.00;101800.41;6208913;28;20049;-76
2023/06/02 06:09:42;;;;;;;12.77;2.75;;;;;;;11.18;100.00;101801.06;6200566;28;20447;-76
2023/06/02 06:12:45;;;;;;;11.18;2.65;;;;;;;11.16;100.00;101805.53;6201468;28;20054;-76
2023/06/02 06:15:47;;;;;;;8.82;2.58;;;;;;;11.12;100.00;101809.19;6192920;28;20359;-76
2023/06/02 06:18:49;;;;;;;14.90;3.03;;;;;;;11.21;100.00;101813.25;6201265;28;20474;-76
2023/06/02 06:21:50;;;;;;;9.93;2.58;;;;;;;11.31;100.00;101806.72;6208641;28;20104;-76
2023/06/02 06:24:52;;;;;;;8.38;2.65;;;;;;;11.31;100.00;101812.00;6225328;28;20053;-76
2023/06/02 06:27:55;;;;;;;11.60;2.85;;;;;;;11.40;100.00;101803.72;6225105;28;20046;-76
2023/06/02 06:30:56;;;;;;;6.70;2.13;;;;;;;11.40;100.00;101801.09;6224611;28;20050;-76
2023/06/02 06:33:58;;;;;;;6.47;2.00;;;;;;;11.42;100.00;101804.50;6220721;28;20053;-76
2023/06/02 06:37:00;;;;;;;8.60;2.67;;;;;;;11.51;100.00;101802.44;6199897;28;20353;-76
2023/06/02 06:40:01;;;;;;;20.33;3.83;;;;;;;11.61;100.00;101806.41;6208795;28;20051;-77
2023/06/02 06:43:04;;;;;;;12.95;2.80;;;;;;;11.60;100.00;101808.19;6212082;28;20065;-77
2023/06/02 06:46:05;;;;;;;7.28;2.40;;;;;;;11.62;100.00;101808.97;6200679;28;20146;-77
2023/06/02 06:49:07;;;;;;;9.77;2.35;;;;;;;11.65;100.00;101806.22;6194824;28;20053;-77
2023/06/02 06:52:09;;;;;;;8.55;2.75;;;;;;;11.70;100.00;101811.28;6198948;28;20047;-77
2023/06/02 06:55:10;;;;;;;7.35;2.65;;;;;;;11.79;100.00;101816.19;6209499;28;20050;-77
2023/06/02 06:58:13;;;;;;;12.20;2.75;;;;;;;11.80;100.00;101817.88;6207935;28;20445;-71
2023/06/02 07:01:14;;;;;;;15.52;4.57;;;;;;;11.80;100.00;101809.13;6206327;28;20050;-71
2023/06/02 07:04:17;;;;;;;9.77;2.85;;;;;;;11.81;100.00;101819.63;6216711;28;20049;-71
2023/06/02 07:07:19;;;;;;;15.43;3.15;;;;;;;11.80;100.00;101809.97;6222589;28;20468;-71
2023/06/02 07:10:21;;;;;;;8.95;2.33;;;;;;;11.90;100.00;101819.28;6228124;28;20046;-71
2023/06/02 07:13:26;;;;;;;9.85;3.65;;;;;;;11.99;100.00;101818.03;6215740;28;20463;-71
2023/06/02 07:16:27;;;;;;;12.15;2.63;;;;;;;12.02;100.00;101815.25;6203125;28;20057;-71
2023/06/02 07:19:29;;;;;;;9.55;2.95;;;;;;;12.13;100.00;101822.72;6223410;28;20045;-71
2023/06/02 07:22:30;;;;;;;11.98;3.45;;;;;;;12.08;100.00;101822.03;6218787;28;20046;-71
2023/06/02 07:25:31;;;;;;;6.90;3.25;;;;;;;12.01;100.00;101828.50;6219927;28;20050;-71
2023/06/02 07:28:34;;;;;;;12.88;2.67;;;;;;;12.11;100.00;101837.72;6203564;28;20046;-71
2023/06/02 07:31:35;;;;;;;12.57;4.47;;;;;;;12.14;100.00;101835.81;6200440;28;20054;-71
2023/06/02 07:34:38;;;;;;;6.93;3.33;;;;;;;12.16;100.00;101830.47;6217467;28;20355;-71
2023/06/02 07:37:40;;;;;;;12.80;3.13;;;;;;;12.25;100.00;101832.72;6228129;28;20460;-71
2023/06/02 07:40:41;;;;;;;13.55;3.47;;;;;;;12.32;100.00;101828.06;6227580;28;20053;-71
2023/06/02 07:43:44;;;;;;;12.77;4.03;;;;;;;12.40;100.00;101839.97;6228069;28;20054;-71
2023/06/02 07:46:45;;;;;;;12.43;3.05;;;;;;;12.49;100.00;101837.84;6228204;28;20081;-71
2023/06/02 07:49:47;;;;;;;6.72;2.97;;;;;;;12.63;100.00;101846.03;6225541;28;20046;-71
2023/06/02 07:52:48;;;;;;;11.20;3.78;;;;;;;12.68;100.00;101838.75;6196323;28;20435;-71
2023/06/02 07:55:49;;;;;;;15.15;3.45;;;;;;;12.72;100.00;101834.19;6203399;28;20061;-71
2023/06/02 07:58:52;;;;;;;9.65;2.60;;;;;;;12.59;100.00;101845.31;6203200;28;20053;-70
2023/06/02 08:01:53;;;;;;;9.13;3.05;;;;;;;12.56;100.00;101831.38;6201292;28;20065;-71
2023/06/02 08:04:55;;;;;;;7.00;3.63;;;;;;;12.55;100.00;101837.59;6207009;28;20064;-76
2023/06/02 08:07:56;;;;;;;15.25;3.35;;;;;;;12.49;100.00;101825.53;6214257;28;20046;-75
2023/06/02 08:10:58;;;;;;;10.52;3.47;;;;;;;12.53;100.00;101827.09;6208817;28;20057;-75
2023/06/02 08:14:00;;;;;;;6.50;2.75;;;;;;;12.53;100.00;101831.50;6220814;28;20049;-75
2023/06/02 08:17:02;;;;;;;10.05;3.35;;;;;;;12.69;100.00;101841.31;6226912;28;20347;-75
2023/06/02 08:20:05;;;;;;;12.18;3.05;;;;;;;12.83;100.00;101838.06;6221307;28;20353;-76
2023/06/02 08:23:07;;;;;;;8.13;2.72;;;;;;;12.84;100.00;101834.50;6207906;28;20055;-75
2023/06/02 08:26:08;;;;;;;14.48;3.97;;;;;;;12.89;100.00;101835.13;6202720;28;20498;-75
2023/06/02 08:29:12;;;;;;;17.25;3.00;;;;;;;12.94;100.00;101827.91;6197795;28;20042;-75
2023/06/02 08:32:13;;;;;;;7.88;3.22;;;;;;;13.01;99.48;101835.53;6215789;28;20046;-75
2023/06/02 08:35:15;;;;;;;10.35;3.25;;;;;;;13.09;100.00;101836.88;6212796;28;20050;-75
2023/06/02 08:38:17;;;;;;;9.93;2.95;;;;;;;13.17;100.00;101834.75;6210561;28;20053;-74
2023/06/02 08:41:19;;;;;;;16.98;3.22;;;;;;;13.25;100.00;101831.75;6222384;28;20509;-76
2023/06/02 08:44:21;;;;;;;6.50;2.75;;;;;;;13.36;100.00;101840.03;6226534;28;20053;-76
2023/06/02 08:47:24;;;;;;;11.20;3.10;;;;;;;13.43;100.00;101841.44;6226580;28;20350;-75
2023/06/02 08:50:32;;;;;;;11.43;3.20;;;;;;;13.40;98.84;101848.69;6218650;28;20054;-76
2023/06/02 08:53:35;;;;;;;16.10;2.92;;;;;;;13.42;97.21;101845.03;6213980;28;20129;-75
2023/06/02 08:56:36;;;;;;;13.05;2.72;;;;;;;13.45;99.22;101851.97;6218105;28;20450;-75
2023/06/02 08:59:40;;;;;;;8.88;2.63;;;;;;;13.52;97.64;101845.44;6225891;28;20049;-75
2023/06/02 09:02:41;;;;;;;9.20;2.80;;;;;;;13.59;94.95;101848.66;6209968;28;20346;-75
2023/06/02 09:05:43;;;;;;;4.35;2.20;;;;;;;13.71;97.17;101848.88;6202266;28;20361;-75
2023/06/02 09:08:52;;;;;;;8.70;2.75;;;;;;;13.82;96.49;101851.03;6216999;28;20050;-75
2023/06/02 09:11:59;;;;;;;8.25;2.40;;;;;;;13.90;96.16;101850.66;6194777;28;20184;-75
2023/06/02 09:15:10;;;;;;;7.43;2.10;;;;;;;13.93;96.69;101853.97;6213651;28;20050;-75
2023/06/02 09:18:12;;;;;;;11.45;3.03;;;;;;;13.98;97.76;101842.31;6201840;28;20042;-77
2023/06/02 09:21:26;;;;;;;5.93;1.88;;;;;;;14.20;95.38;101843.81;6196357;28;20049;-77
2023/06/02 09:24:32;;;;;;;10.98;2.33;;;;;;;14.23;94.19;101842.81;6197931;28;20042;-78
2023/06/02 09:27:34;;;;;;;8.05;2.45;;;;;;;14.43;94.40;101841.78;6209542;28;20057;-76
2023/06/02 09:30:36;;;;;;;5.32;2.03;;;;;;;14.47;93.71;101845.97;6201284;28;20054;-77
2023/06/02 09:33:38;;;;;;;9.75;2.10;;;;;;;14.59;92.15;101850.66;6194650;28;20042;-77
2023/06/02 09:36:39;;;;;;;11.52;3.28;;;;;;;14.54;88.73;101841.25;6224149;28;20117;-77
2023/06/02 09:39:43;;;;;;;10.75;2.33;;;;;;;14.49;90.15;101836.22;6225107;28;20057;-78
2023/06/02 09:42:44;;;;;;;4.30;1.95;;;;;;;14.52;88.99;101843.97;6225619;28;20473;-77
2023/06/02 09:46:00;;;;;;;4.10;1.92;;;;;;;14.48;91.38;101837.13;6225439;28;20057;-77
2023/06/02 09:49:02;;;;;;;5.90;2.03;;;;;;;14.56;92.68;101834.94;6215623;28;20351;-77
2023/06/02 09:52:11;;;;;;;11.85;2.15;;;;;;;14.58;90.43;101835.72;6208957;28;20058;-77
2023/06/02 09:55:13;;;;;;;5.90;2.50;;;;;;;14.66;88.98;101835.31;6209091;28;20125;-79
2023/06/02 09:58:14;;;;;;;5.90;1.85;;;;;;;14.73;90.31;101842.00;6208841;28;20049;-79
2023/06/02 10:01:17;;;;;;;8.15;1.92;;;;;;;14.80;88.78;101835.41;6221598;28;20053;-78
2023/06/02 10:04:18;;;;;;;4.28;1.83;;;;;;;14.82;87.95;101822.13;6209957;28;20057;-79
2023/06/02 10:07:33;;;;;;;6.18;2.20;;;;;;;14.93;88.01;101831.19;6204487;28;20050;-77
2023/06/02 10:10:49;;;;;;;7.68;1.67;;;;;;;15.06;85.04;101818.13;6199386;28;20053;-77
2023/06/02 10:14:04;;;;;;;9.15;1.75;;;;;;;15.22;84.17;101820.81;6200619;28;20355;-76
2023/06/02 10:17:20;;;;;;;9.30;2.45;;;;;;;15.37;85.15;101816.44;6203718;28;20054;-77
2023/06/02 10:20:27;;;;;;;4.82;1.20;;;;;;;15.44;84.47;101820.44;6217831;28;20363;-77
2023/06/02 10:23:45;;;;;;;10.40;1.90;;;;;;;15.59;83.13;101811.63;6211294;28;20046;-77
2023/06/02 10:27:00;;;;;;;5.05;1.45;;;;;;;15.79;80.49;101815.78;6225324;28;20054;-77
2023/06/02 10:30:02;;;;;;;4.30;2.13;;;;;;;15.92;80.54;101807.97;6228533;28;20053;-80
2023/06/02 10:33:07;;;;;;;6.25;1.88;;;;;;;16.16;78.36;101811.81;6229684;28;20077;-77
2023/06/02 10:36:08;;;;;;;8.00;1.58;;;;;;;16.15;79.08;101819.88;6229949;28;20478;-78
2023/06/02 10:39:45;;;;;;;6.07;1.75;;;;;;;16.07;78.88;101819.47;6209876;28;20043;-77
2023/06/02 10:43:12;;;;;;;7.00;2.10;;;;;;;15.93;79.54;101817.63;6195690;28;20051;-79
2023/06/02 10:46:16;;;;;;;10.70;1.70;;;;;;;15.87;82.05;101825.97;6229383;28;20053;-79
2023/06/02 10:49:52;;;;;;;5.13;1.35;;;;;;;15.84;83.75;101826.97;6219191;28;20378;-79
2023/06/02 10:53:09;;;;;;;3.80;1.55;;;;;;;15.82;82.03;101826.22;6198074;28;20065;-79
2023/06/02 10:56:41;;;;;;;3.90;1.42;;;;;;;15.82;81.74;101820.06;6204961;28;20054;-79
2023/06/02 10:59:42;;;;;;;4.05;1.17;;;;;;;15.82;80.39;101823.56;6181256;28;20129;-79
2023/06/02 11:02:44;;;;;;;2.70;1.25;;;;;;;15.83;81.11;101827.09;6204919;28;20046;-80
2023/06/02 11:05:49;;;;;;;8.43;3.30;;;;;;;15.82;83.84;101828.03;6212695;28;20056;-79
2023/06/02 11:08:53;;;;;;;5.25;1.65;;;;;;;15.78;81.95;101831.81;6196697;28;20201;-79
2023/06/02 11:11:54;;;;;;;5.18;1.38;;;;;;;15.78;83.69;101843.25;6203043;28;20074;-79
2023/06/02 11:15:18;;;;;;;3.17;1.23;;;;;;;15.80;85.10;101833.41;6189598;28;20055;-77
2023/06/02 11:18:41;;;;;;;2.50;1.10;;;;;;;15.93;86.09;101839.69;6212765;28;20046;-77
2023/06/02 11:21:44;;;;;;;4.25;1.92;;;;;;;16.15;84.25;101828.69;6227451;28;20061;-79
2023/06/02 11:24:45;;;;;;;4.35;1.13;;;;;;;16.22;82.29;101831.84;6227443;28;20097;-79
2023/06/02 11:27:48;;;;;;;7.30;1.30;;;;;;;16.43;83.06;101832.34;6214822;28;20406;-80
2023/06/02 11:31:05;;;;;;;6.28;1.60;;;;;;;16.84;77.95;101834.28;6208865;28;20042;-79
2023/06/02 11:34:15;;;;;;;6.28;1.10;;;;;;;16.88;78.47;101825.19;6206688;28;20054;-79
2023/06/02 11:37:20;;;;;;;8.52;1.75;;;;;;;16.86;78.41;101835.06;6212249;28;20438;-78
2023/06/02 11:40:22;;;;;;;4.32;1.08;;;;;;;16.82;80.42;101833.53;6214128;28;20092;-77
2023/06/02 11:43:23;;;;;;;3.97;1.33;;;;;;;16.71;78.79;101834.16;6203693;28;20053;-77
2023/06/02 11:46:24;;;;;;;6.45;1.27;;;;;;;16.52;80.60;101831.78;6216887;28;20049;-77
2023/06/02 11:49:36;;;;;;;8.02;1.50;;;;;;;16.34;82.01;101831.09;6208138;28;20043;-79
2023/06/02 11:52:39;;;;;;;3.33;1.35;;;;;;;16.26;85.76;101836.03;6214737;28;20046;-77
2023/06/02 11:55:40;;;;;;;2.65;1.38;;;;;;;16.24;86.91;101836.09;6211457;28;20046;-78
2023/06/02 11:58:43;;;;;;;5.70;1.38;;;;;;;16.30;83.33;101834.88;6218849;28;20073;-77
2023/06/02 12:01:44;;;;;;;1.95;1.17;;;;;;;16.26;83.35;101836.03;6218884;28;20057;-77
2023/06/02 12:04:46;;;;;;;7.82;2.00;;;;;;;16.26;85.46;101835.16;6227684;28;20427;-80
2023/06/02 12:07:49;;;;;;;3.72;1.60;;;;;;;16.38;85.58;101839.72;6203300;28;20054;-78
2023/06/02 12:10:51;;;;;;;6.38;1.75;;;;;;;16.37;85.82;101840.69;6211124;28;20054;-78
2023/06/02 12:13:59;;;;;;;4.90;1.23;;;;;;;16.42;84.21;101835.94;6210496;28;20046;-78
2023/06/02 12:17:04;;;;;;;4.18;1.33;;;;;;;16.52;81.77;101838.88;6195821;28;20061;-78
2023/06/02 12:20:07;;;;;;;1.50;1.13;;;;;;;16.47;81.38;101832.06;6211617;28;20133;-78
2023/06/02 12:23:11;;;;;;;4.57;1.38;;;;;;;16.53;83.71;101835.28;6224031;28;20254;-78
2023/06/02 12:26:12;;;;;;;2.70;1.42;;;;;;;16.57;82.92;101836.81;6214394;28;20056;-78
2023/06/02 12:29:14;;;;;;;3.25;1.48;;;;;;;16.62;80.62;101837.38;6226419;28;20038;-78
2023/06/02 12:32:25;;;;;;;3.72;1.77;;;;;;;16.66;82.48;101837.09;6223382;28;20062;-78
2023/06/02 12:35:27;;;;;;;4.90;1.13;;;;;;;16.74;83.35;101836.66;6202617;28;20046;-78
2023/06/02 12:38:29;;;;;;;4.88;1.70;;;;;;;16.84;81.36;101839.59;6210746;28;20462;-79
2023/06/02 12:41:31;;;;;;;7.57;1.05;;;;;;;16.93;79.76;101844.31;6201802;28;20046;-78
2023/06/02 12:44:33;;;;;;;3.60;1.23;;;;;;;16.99;81.15;101841.31;6202516;28;20046;-78
2023/06/02 12:47:34;;;;;;;5.53;1.40;;;;;;;17.05;78.55;101848.03;6206262;28;20066;-78
2023/06/02 12:50:36;;;;;;;1.83;1.20;;;;;;;17.09;78.05;101834.47;6224536;28;20042;-78
2023/06/02 12:53:38;;;;;;;3.90;1.08;;;;;;;17.13;76.95;101841.28;6219823;28;20046;-79
2023/06/02 12:56:42;;;;;;;5.20;1.42;;;;;;;17.18;75.14;101843.66;6217654;28;20046;-79
2023/06/02 12:59:43;;;;;;;2.60;1.13;;;;;;;17.30;74.87;101842.00;6202067;28;20450;-79
2023/06/02 13:02:46;;;;;;;1.33;1.23;;;;;;;17.71;73.60;101836.66;6202004;28;20057;-79
2023/06/02 13:05:57;;;;;;;2.40;0.95;;;;;;;18.14;74.64;101823.19;6202185;28;20050;-78
2023/06/02 13:09:00;;;;;;;2.78;1.42;;;;;;;18.51;72.21;101830.34;6195403;28;20054;-78
2023/06/02 13:12:02;;;;;;;7.18;1.77;;;;;;;18.41;69.16;101829.28;6201913;28;20046;-78
2023/06/02 13:15:05;;;;;;;1.88;1.00;;;;;;;18.19;69.45;101834.38;6201611;28;20089;-78
2023/06/02 13:18:07;;;;;;;8.40;1.40;;;;;;;17.90;70.08;101833.69;6204409;28;20093;-78
2023/06/02 13:21:09;;;;;;;7.82;1.77;;;;;;;17.74;67.85;101833.81;6225268;28;20464;-78
2023/06/02 13:24:11;;;;;;;2.55;1.33;;;;;;;17.73;70.48;101832.97;6209882;28;20052;-79
2023/06/02 13:27:14;;;;;;;2.72;1.27;;;;;;;17.93;68.93;101836.97;6214451;28;20048;-79
2023/06/02 13:30:17;;;;;;;5.00;1.98;;;;;;;17.99;68.37;101839.22;6209000;28;20461;-79
2023/06/02 13:33:18;;;;;;;3.28;1.00;;;;;;;17.93;68.03;101836.09;6205394;28;20141;-79
2023/06/02 13:36:19;;;;;;;3.50;1.05;;;;;;;17.98;67.02;101834.00;6201672;28;20427;-79
2023/06/02 13:39:22;;;;;;;2.85;1.10;;;;;;;18.49;67.23;101831.41;6200854;28;20304;-79
2023/06/02 13:42:24;;;;;;;4.53;1.40;;;;;;;18.93;64.71;101830.13;6193473;28;20424;-80
2023/06/02 13:45:25;;;;;;;1.45;1.00;;;;;;;19.27;62.84;101821.41;6196363;28;20129;-80
2023/06/02 13:48:26;;;;;;;2.65;0.98;;;;;;;18.94;62.75;101827.34;6207724;28;20494;-79
2023/06/02 13:51:27;;;;;;;4.55;1.17;;;;;;;18.68;66.21;101829.16;6206182;28;20061;-79
2023/06/02 13:54:31;;;;;;;5.55;1.63;;;;;;;18.43;66.13;101832.66;6204638;28;20054;-79
2023/06/02 13:57:33;;;;;;;1.63;1.00;;;;;;;18.25;66.37;101833.94;6223584;28;20458;-79
2023/06/02 14:00:35;;;;;;;2.47;0.98;;;;;;;18.15;67.06;101831.06;6224804;28;20366;-78
2023/06/02 14:03:36;;;;;;;3.08;1.10;;;;;;;18.12;67.61;101825.06;6221210;28;20514;-78
2023/06/02 14:06:38;;;;;;;4.68;0.93;;;;;;;18.09;65.68;101820.00;6212670;28;20049;-79
2023/06/02 14:09:41;;;;;;;3.42;1.10;;;;;;;18.59;67.61;101818.31;6214711;28;20046;-78